Time;durP1;ratioP1;P1;durP2;ratioP2;P2;SDS_P1;SDS_P2;PMS_P1;PMS_P2;Temp;Humidity;BMP_temperature;BMP_pressure;BME280_temperature;BME280_humidity;BME280_pressure;Samples;Min_cycle;Max_cycle;Signal;HPM_P1;HPM_P2
2023/12/14 00:00:07;;;;;;;25.10;11.77;;;;;;;10.45;72.09;100252.72;5081371;27;98951;-74
2023/12/14 00:02:35;;;;;;;20.23;11.10;;;;;;;10.54;71.42;100243.56;5077800;27;96834;-75
2023/12/14 00:05:01;;;;;;;21.17;10.15;;;;;;;10.53;71.53;100242.69;5076574;27;96934;-75
2023/12/14 00:07:28;;;;;;;24.70;11.68;;;;;;;10.48;71.33;100247.34;5079588;27;99589;-75
2023/12/14 00:09:54;;;;;;;20.15;11.20;;;;;;;10.45;72.25;100257.16;5079351;27;98941;-75
2023/12/14 00:12:20;;;;;;;21.63;11.23;;;;;;;10.49;71.46;100264.03;5084122;27;96922;-75
2023/12/14 00:14:47;;;;;;;24.80;11.88;;;;;;;10.24;72.16;100258.94;5079491;27;96940;-75
2023/12/14 00:17:13;;;;;;;20.88;11.18;;;;;;;10.28;72.55;100269.31;5080986;27;98923;-75
2023/12/14 00:19:41;;;;;;;22.83;11.75;;;;;;;10.39;71.67;100267.06;5080245;27;101248;-75
2023/12/14 00:22:07;;;;;;;23.50;11.88;;;;;;;10.34;72.70;100278.75;5085206;27;96768;-75
2023/12/14 00:24:33;;;;;;;24.60;11.88;;;;;;;10.62;71.81;100279.31;5082304;27;98368;-73
2023/12/14 00:27:00;;;;;;;25.23;12.23;;;;;;;10.50;72.20;100284.25;5081102;27;99498;-74
2023/12/14 00:29:26;;;;;;;26.75;11.73;;;;;;;10.67;70.60;100285.25;5081676;27;99494;-73
2023/12/14 00:31:52;;;;;;;21.33;11.02;;;;;;;10.62;71.18;100289.00;5085291;27;99587;-74
2023/12/14 00:34:19;;;;;;;21.05;11.18;;;;;;;10.52;71.85;100296.47;5079884;27;96951;-75
2023/12/14 00:36:47;;;;;;;19.20;11.07;;;;;;;10.61;70.83;100296.06;5080291;27;99015;-75
2023/12/14 00:39:13;;;;;;;21.08;11.82;;;;;;;10.45;71.02;100304.69;5080466;27;98939;-74
2023/12/14 00:41:39;;;;;;;23.60;11.25;;;;;;;10.34;71.93;100307.78;5085399;27;98567;-74
2023/12/14 00:44:06;;;;;;;22.25;11.70;;;;;;;10.31;71.65;100307.91;5076607;27;98820;-74
2023/12/14 00:46:32;;;;;;;23.45;11.48;;;;;;;10.36;71.93;100306.81;5086122;27;98967;-74
2023/12/14 00:48:58;;;;;;;20.67;11.60;;;;;;;10.58;71.59;100308.53;5079294;27;98003;-75
2023/12/14 00:51:25;;;;;;;22.88;12.13;;;;;;;10.46;71.55;100320.50;5081544;27;96900;-74
2023/12/14 00:53:53;;;;;;;23.55;11.73;;;;;;;10.37;71.38;100318.25;5087128;27;96842;-74
2023/12/14 00:56:19;;;;;;;21.48;10.90;;;;;;;10.41;71.45;100330.41;5077808;27;97857;-74
2023/12/14 00:58:45;;;;;;;18.95;10.00;;;;;;;10.48;71.24;100334.50;5082564;27;98791;-75
2023/12/14 01:01:12;;;;;;;22.65;10.77;;;;;;;10.38;71.16;100336.66;5081674;27;96987;-74
2023/12/14 01:03:38;;;;;;;18.75;10.18;;;;;;;10.42;71.24;100336.53;5078025;27;97185;-74
2023/12/14 01:06:06;;;;;;;18.13;9.95;;;;;;;10.46;70.81;100344.25;5078289;27;100684;-74
2023/12/14 01:08:33;;;;;;;19.58;9.82;;;;;;;10.59;70.71;100348.13;5081276;27;99177;-74
2023/12/14 01:11:00;;;;;;;20.70;8.90;;;;;;;10.22;69.87;100356.69;5079944;27;98464;-75
2023/12/14 01:13:27;;;;;;;18.73;10.02;;;;;;;10.24;70.92;100354.00;5082411;27;96962;-75
2023/12/14 01:15:53;;;;;;;20.45;10.27;;;;;;;10.09;71.26;100355.44;5075881;27;99624;-75
2023/12/14 01:18:19;;;;;;;20.38;10.07;;;;;;;9.99;71.30;100364.63;5078302;27;98976;-75
2023/12/14 01:20:46;;;;;;;19.75;10.45;;;;;;;10.08;71.95;100366.03;5079950;27;97294;-75
2023/12/14 01:23:13;;;;;;;17.60;9.50;;;;;;;10.15;71.67;100375.44;5083231;27;97731;-75
2023/12/14 01:25:39;;;;;;;16.75;9.45;;;;;;;9.87;71.58;100368.59;5079632;27;101640;-75
2023/12/14 01:28:08;;;;;;;22.40;11.10;;;;;;;9.73;72.45;100370.91;5079221;27;99204;-75
2023/12/14 01:30:34;;;;;;;18.70;9.25;;;;;;;10.00;72.44;100377.75;5085178;27;96805;-75
2023/12/14 01:33:01;;;;;;;17.77;9.00;;;;;;;9.85;71.94;100377.47;5078782;27;96865;-74
2023/12/14 01:35:29;;;;;;;19.35;9.90;;;;;;;10.05;72.29;100390.78;5081384;27;98877;-76
2023/12/14 01:37:56;;;;;;;16.38;8.57;;;;;;;10.23;71.26;100394.53;5080023;27;99343;-74
2023/12/14 01:40:22;;;;;;;14.27;7.68;;;;;;;10.26;69.88;100397.03;5089991;27;96746;-74
2023/12/14 01:42:48;;;;;;;16.50;7.35;;;;;;;10.09;70.13;100402.94;5084704;27;101380;-74
2023/12/14 01:45:16;;;;;;;14.88;7.78;;;;;;;10.21;70.32;100404.28;5073360;27;98506;-74
2023/12/14 01:47:43;;;;;;;13.68;7.47;;;;;;;10.10;70.69;100395.91;5078505;27;99060;-74
2023/12/14 01:50:08;;;;;;;13.77;7.22;;;;;;;9.87;70.66;100405.53;5088094;27;97155;-74
2023/12/14 01:52:35;;;;;;;;;;;;;;;9.96;71.11;100402.56;5080263;27;97314;-74
2023/12/14 01:55:02;;;;;;;14.98;7.60;;;;;;;10.05;70.21;100405.75;5083588;27;99495;-74
2023/12/14 01:57:29;;;;;;;12.15;6.65;;;;;;;10.14;69.90;100413.31;5086119;27;98967;-73
2023/12/14 01:59:55;;;;;;;11.70;7.05;;;;;;;10.19;69.38;100414.91;5086649;27;98945;-73
2023/12/14 02:02:23;;;;;;;10.05;5.80;;;;;;;10.05;69.51;100413.66;5083696;27;97826;-74
2023/12/14 02:04:49;;;;;;;10.90;6.10;;;;;;;9.96;69.52;100413.13;5077730;27;98756;-74
2023/12/14 02:07:15;;;;;;;9.95;5.75;;;;;;;9.68;70.29;100425.63;5080464;27;98910;-74
2023/12/14 02:09:42;;;;;;;11.00;5.85;;;;;;;9.59;70.63;100424.16;5084436;27;96999;-74
2023/12/14 02:12:08;;;;;;;13.52;7.15;;;;;;;9.70;70.65;100431.72;5079470;27;96896;-73
2023/12/14 02:14:34;;;;;;;11.52;6.53;;;;;;;9.70;71.19;100429.06;5085423;27;98953;-74
2023/12/14 02:17:01;;;;;;;11.45;6.53;;;;;;;9.71;71.02;100428.16;5080460;27;97018;-73
2023/12/14 02:19:28;;;;;;;13.40;7.25;;;;;;;9.77;71.17;100422.66;5083557;27;99302;-73
2023/12/14 02:21:55;;;;;;;12.32;6.82;;;;;;;9.66;70.90;100424.81;5088065;27;96680;-74
2023/12/14 02:24:22;;;;;;;15.15;7.53;;;;;;;9.68;71.38;100428.25;5086682;27;98863;-74
2023/12/14 02:26:49;;;;;;;11.30;7.35;;;;;;;9.64;71.33;100429.31;5083864;27;101322;-74
2023/12/14 02:29:15;;;;;;;13.88;7.30;;;;;;;9.42;71.95;100425.72;5080825;27;96874;-74
2023/12/14 02:31:41;;;;;;;14.73;8.18;;;;;;;9.54;71.54;100431.41;5077644;27;97083;-74
2023/12/14 02:34:08;;;;;;;13.60;8.02;;;;;;;9.76;71.80;100434.13;5079943;27;99054;-75
2023/12/14 02:36:34;;;;;;;12.40;8.02;;;;;;;9.89;71.67;100434.53;5079950;27;98729;-75
2023/12/14 02:39:00;;;;;;;13.00;7.43;;;;;;;9.81;70.38;100440.09;5082627;27;98065;-75
2023/12/14 02:41:28;;;;;;;14.88;8.25;;;;;;;9.91;70.33;100441.44;5082584;27;97301;-75
2023/12/14 02:43:55;;;;;;;15.23;8.43;;;;;;;9.84;70.68;100447.03;5085618;27;98811;-75
2023/12/14 02:46:21;;;;;;;14.25;8.68;;;;;;;9.91;69.94;100446.72;5075170;27;99041;-74
2023/12/14 02:48:48;;;;;;;16.88;8.43;;;;;;;9.76;70.18;100449.97;5081076;27;96746;-75
2023/12/14 02:51:14;;;;;;;14.68;8.63;;;;;;;9.90;70.37;100449.44;5076984;27;99246;-73
2023/12/14 02:53:41;;;;;;;17.55;9.05;;;;;;;9.85;69.94;100444.31;5084481;27;99201;-74
2023/12/14 02:56:09;;;;;;;16.98;8.65;;;;;;;9.85;70.01;100448.72;5076612;27;98813;-74
2023/12/14 02:58:37;;;;;;;17.85;8.82;;;;;;;9.69;70.85;100455.50;5077827;27;97293;-76
2023/12/14 03:01:04;;;;;;;14.38;8.60;;;;;;;9.75;70.79;100456.16;5074959;27;96709;-75
2023/12/14 03:03:30;;;;;;;16.38;8.18;;;;;;;9.92;70.13;100458.16;5082217;27;99316;-75
2023/12/14 03:05:57;;;;;;;16.83;9.18;;;;;;;9.86;69.94;100456.59;5085483;27;99203;-75
2023/12/14 03:08:23;;;;;;;15.25;8.10;;;;;;;9.98;69.93;100468.47;5087247;27;97458;-75
2023/12/14 03:10:49;;;;;;;17.73;8.43;;;;;;;9.92;69.40;100474.84;5082445;27;96864;-74
2023/12/14 03:13:16;;;;;;;20.42;9.27;;;;;;;9.89;68.98;100482.91;5079759;27;100999;-75
2023/12/14 03:15:44;;;;;;;17.08;9.27;;;;;;;9.86;69.98;100485.63;5089750;27;99176;-75
2023/12/14 03:18:13;;;;;;;19.63;9.10;;;;;;;9.80;70.21;100483.22;5079472;27;96908;-76
2023/12/14 03:20:39;;;;;;;19.10;9.43;;;;;;;9.84;69.98;100479.56;5076644;27;97388;-75
2023/12/14 03:23:06;;;;;;;19.35;9.70;;;;;;;9.80;70.22;100490.28;5079168;27;97583;-76
2023/12/14 03:25:32;;;;;;;17.23;8.98;;;;;;;9.73;70.56;100489.63;5083329;27;100510;-75
2023/12/14 03:27:58;;;;;;;17.25;8.82;;;;;;;9.70;70.77;100494.16;5077324;27;98581;-75
2023/12/14 03:30:26;;;;;;;18.23;9.45;;;;;;;9.74;70.17;100491.34;5074288;27;96779;-76
2023/12/14 03:32:54;;;;;;;16.23;9.15;;;;;;;9.84;70.09;100498.03;5082049;27;98998;-75
2023/12/14 03:35:20;;;;;;;24.35;9.90;;;;;;;9.63;71.20;100500.59;5082853;27;103364;-76
2023/12/14 03:37:47;;;;;;;14.75;8.65;;;;;;;9.50;71.25;100505.44;5079432;27;96907;-75
2023/12/14 03:40:13;;;;;;;15.90;8.90;;;;;;;9.70;70.96;100516.13;5084015;27;96864;-75
2023/12/14 03:42:40;;;;;;;16.75;8.80;;;;;;;9.62;71.25;100512.91;5077911;27;98791;-75
2023/12/14 03:45:07;;;;;;;19.55;9.18;;;;;;;9.82;70.43;100509.56;5083060;27;99278;-75
2023/12/14 03:47:33;;;;;;;15.23;8.88;;;;;;;9.81;69.86;100519.25;5082131;27;100325;-75
2023/12/14 03:50:01;;;;;;;14.23;8.38;;;;;;;9.67;71.32;100525.94;5087516;27;97267;-75
2023/12/14 03:52:31;;;;;;;15.55;9.23;;;;;;;9.77;71.09;100528.19;5077340;27;99271;-75
2023/12/14 03:54:57;;;;;;;16.92;9.50;;;;;;;9.70;70.18;100534.59;5081889;27;99165;-75
2023/12/14 03:57:23;;;;;;;18.67;9.10;;;;;;;9.59;70.54;100534.97;5076830;27;99005;-75
2023/12/14 03:59:50;;;;;;;17.17;9.13;;;;;;;9.67;71.50;100547.91;5081883;27;97580;-76
2023/12/14 04:02:16;;;;;;;12.85;7.80;;;;;;;9.78;70.98;100548.38;5077781;27;99269;-75
2023/12/14 04:04:43;;;;;;;13.77;7.50;;;;;;;9.77;70.01;100557.22;5073943;27;97607;-75
2023/12/14 04:07:10;;;;;;;13.57;7.80;;;;;;;9.87;69.35;100553.34;5072724;27;96665;-75
2023/12/14 04:09:37;;;;;;;14.52;8.20;;;;;;;9.68;69.69;100554.91;5082597;27;97025;-75
2023/12/14 04:12:04;;;;;;;13.13;7.85;;;;;;;9.69;71.05;100556.63;5082236;27;98811;-75
2023/12/14 04:14:30;;;;;;;13.48;7.00;;;;;;;9.72;70.38;100558.28;5079964;27;98174;-75
2023/12/14 04:16:57;;;;;;;15.50;7.38;;;;;;;9.63;70.44;100559.47;5073639;27;98556;-75
2023/12/14 04:19:23;;;;;;;13.35;7.35;;;;;;;9.64;71.66;100560.34;5078728;27;97350;-75
2023/12/14 04:21:49;;;;;;;17.67;7.18;;;;;;;9.74;70.87;100567.88;5079717;27;98955;-75
2023/12/14 04:24:17;;;;;;;12.52;6.55;;;;;;;9.73;70.20;100568.78;5079941;27;101261;-75
2023/12/14 04:26:44;;;;;;;13.73;6.68;;;;;;;9.80;70.59;100569.44;5087780;27;96670;-75
2023/12/14 04:29:10;;;;;;;13.77;6.97;;;;;;;9.73;71.08;100589.03;5081714;27;96793;-75
2023/12/14 04:31:36;;;;;;;11.82;6.90;;;;;;;9.96;69.79;100575.91;5084363;27;98838;-75
2023/12/14 04:34:03;;;;;;;15.80;7.32;;;;;;;9.81;69.83;100582.59;5078596;27;99007;-75
2023/12/14 04:36:29;;;;;;;12.30;7.07;;;;;;;9.81;69.80;100582.59;5087730;27;96713;-75
2023/12/14 04:38:55;;;;;;;13.90;7.53;;;;;;;9.66;70.76;100583.09;5075248;27;96724;-75
2023/12/14 04:41:23;;;;;;;15.35;7.88;;;;;;;9.54;71.75;100591.44;5083925;27;98020;-75
2023/12/14 04:43:49;;;;;;;16.25;7.80;;;;;;;9.62;71.48;100592.03;5078591;27;98371;-76
2023/12/14 04:46:16;;;;;;;14.57;7.93;;;;;;;9.36;72.32;100587.66;5081542;27;97296;-75
2023/12/14 04:48:43;;;;;;;14.68;7.65;;;;;;;9.60;72.07;100594.72;5082474;27;97164;-75
2023/12/14 04:51:12;;;;;;;14.15;7.85;;;;;;;9.70;70.82;100590.03;5075362;27;102848;-75
2023/12/14 04:53:38;;;;;;;15.95;7.32;;;;;;;9.70;71.39;100590.03;5073447;27;99094;-75
2023/12/14 04:56:05;;;;;;;12.82;7.50;;;;;;;9.56;70.42;100602.81;5080103;27;97901;-75
2023/12/14 04:58:33;;;;;;;18.00;7.63;;;;;;;9.71;70.78;100612.84;5080385;27;97305;-75
2023/12/14 05:01:00;;;;;;;14.88;8.35;;;;;;;9.56;71.68;100613.38;5080194;27;102419;-75
2023/12/14 05:03:26;;;;;;;15.15;7.55;;;;;;;9.83;71.28;100614.22;5075913;27;98933;-75
2023/12/14 05:05:52;;;;;;;18.70;8.15;;;;;;;10.04;70.56;100618.75;5079779;27;97274;-75
2023/12/14 05:08:19;;;;;;;18.33;8.38;;;;;;;9.79;71.25;100620.47;5077139;27;98298;-75
2023/12/14 05:10:45;;;;;;;17.88;8.27;;;;;;;9.85;71.46;100623.78;5078156;27;100584;-74
2023/12/14 05:13:11;;;;;;;15.73;8.05;;;;;;;9.93;71.17;100629.66;5078706;27;102524;-74
2023/12/14 05:15:39;;;;;;;12.30;8.05;;;;;;;10.05;70.63;100630.13;5076744;27;96831;-74
2023/12/14 05:18:06;;;;;;;14.48;7.97;;;;;;;10.02;69.72;100635.53;5078215;27;97570;-74
2023/12/14 05:20:32;;;;;;;13.43;7.30;;;;;;;9.96;70.15;100637.50;5081620;27;97633;-73
2023/12/14 05:22:58;;;;;;;13.30;8.13;;;;;;;9.98;70.01;100647.97;5083313;27;98936;-74
2023/12/14 05:25:25;;;;;;;14.95;8.30;;;;;;;9.78;70.64;100655.72;5080788;27;96799;-73
2023/12/14 05:27:51;;;;;;;16.08;8.73;;;;;;;9.94;70.97;100656.91;5084939;27;97538;-75
2023/12/14 05:30:18;;;;;;;17.67;8.68;;;;;;;10.06;69.77;100672.34;5082172;27;99070;-73
2023/12/14 05:32:46;;;;;;;14.90;8.32;;;;;;;9.81;70.45;100671.44;5074904;27;99027;-74
2023/12/14 05:35:13;;;;;;;18.20;8.90;;;;;;;9.93;70.65;100674.53;5081580;27;98352;-74
2023/12/14 05:37:39;;;;;;;13.13;8.05;;;;;;;9.82;70.29;100674.03;5077937;27;97277;-74
2023/12/14 05:40:07;;;;;;;10.95;7.50;;;;;;;9.85;70.52;100684.47;5075907;27;98912;-74
2023/12/14 05:42:34;;;;;;;13.70;8.32;;;;;;;9.78;70.45;100685.59;5074625;27;98200;-73
2023/12/14 05:45:00;;;;;;;13.23;8.02;;;;;;;9.73;70.92;100687.53;5084434;27;97638;-74
2023/12/14 05:47:27;;;;;;;14.82;8.27;;;;;;;9.88;71.02;100694.94;5081949;27;96903;-74
2023/12/14 05:49:55;;;;;;;16.08;8.10;;;;;;;9.71;71.28;100693.78;5077140;27;101151;-75
2023/12/14 05:52:21;;;;;;;17.05;8.23;;;;;;;9.51;71.96;100697.06;5081731;27;98794;-76
2023/12/14 05:54:48;;;;;;;12.93;7.53;;;;;;;9.88;70.88;100699.34;5078133;27;96889;-76
2023/12/14 05:57:14;;;;;;;11.55;6.90;;;;;;;9.75;71.29;100709.47;5086893;27;96935;-75
2023/12/14 05:59:40;;;;;;;12.02;7.68;;;;;;;9.85;70.56;100716.16;5076738;27;99237;-75
2023/12/14 06:02:07;;;;;;;12.50;6.97;;;;;;;9.70;71.35;100715.81;5082182;27;97526;-75
2023/12/14 06:04:33;;;;;;;12.90;7.50;;;;;;;9.76;70.81;100713.81;5074466;27;97115;-76
2023/12/14 06:07:01;;;;;;;16.90;7.88;;;;;;;9.74;70.53;100718.28;5075679;27;97172;-75
2023/12/14 06:09:33;;;;;;;11.18;7.75;;;;;;;9.73;70.86;100721.81;5081530;27;99208;-75
2023/12/14 06:12:00;;;;;;;12.25;7.68;;;;;;;9.79;70.30;100726.91;5082882;27;99064;-74
2023/12/14 06:14:26;;;;;;;11.68;7.40;;;;;;;9.92;70.35;100727.38;5079299;27;98088;-75
2023/12/14 06:16:53;;;;;;;12.27;7.13;;;;;;;9.92;69.57;100733.50;5074520;27;96996;-75
2023/12/14 06:19:19;;;;;;;11.88;7.10;;;;;;;9.94;70.18;100731.69;5081799;27;99631;-75
2023/12/14 06:21:45;;;;;;;10.80;7.38;;;;;;;9.69;70.68;100741.31;5085525;27;99419;-75
2023/12/14 06:24:13;;;;;;;10.25;6.75;;;;;;;9.94;70.47;100744.03;5082301;27;97109;-75
2023/12/14 06:26:42;;;;;;;14.55;8.15;;;;;;;9.95;70.25;100749.25;5082696;27;97204;-74
2023/12/14 06:29:09;;;;;;;11.60;7.00;;;;;;;10.00;69.52;100746.47;5074269;27;99353;-74
2023/12/14 06:31:36;;;;;;;11.63;7.22;;;;;;;10.05;69.59;100738.38;5080541;27;99183;-75
2023/12/14 06:34:03;;;;;;;9.13;7.00;;;;;;;9.94;69.71;100751.94;5088560;27;100120;-75
2023/12/14 06:36:30;;;;;;;10.30;7.18;;;;;;;10.04;68.43;100747.25;5078770;27;96765;-75
2023/12/14 06:38:57;;;;;;;11.98;7.75;;;;;;;9.90;69.88;100755.59;5082489;27;99259;-76
2023/12/14 06:41:26;;;;;;;10.63;7.45;;;;;;;9.97;69.63;100758.00;5083211;27;98842;-76
2023/12/14 06:43:52;;;;;;;10.85;7.63;;;;;;;9.98;69.08;100759.69;5081281;27;97619;-76
2023/12/14 06:46:19;;;;;;;13.27;7.60;;;;;;;9.87;69.83;100769.75;5081124;27;96889;-76
2023/12/14 06:48:46;;;;;;;11.27;7.70;;;;;;;10.06;68.80;100771.78;5083664;27;100493;-76
2023/12/14 06:51:12;;;;;;;9.50;7.32;;;;;;;9.93;69.41;100782.75;5081452;27;99004;-76
2023/12/14 06:53:41;;;;;;;12.45;7.93;;;;;;;9.94;68.68;100787.13;5078916;27;98470;-76
2023/12/14 06:56:10;;;;;;;11.73;7.22;;;;;;;9.92;69.25;100794.22;5078568;27;98334;-76
2023/12/14 06:58:39;;;;;;;11.23;7.35;;;;;;;9.96;69.24;100789.72;5079449;27;102271;-76
2023/12/14 07:01:05;;;;;;;10.93;6.93;;;;;;;9.96;69.30;100798.50;5080608;27;99015;-76
2023/12/14 07:03:32;;;;;;;13.05;7.93;;;;;;;10.10;69.02;100798.06;5078993;27;98799;-76
2023/12/14 07:05:59;;;;;;;13.70;8.07;;;;;;;10.02;69.20;100807.13;5081905;27;97244;-75
2023/12/14 07:08:25;;;;;;;10.93;6.57;;;;;;;10.12;68.23;100813.84;5075279;27;98873;-76
2023/12/14 07:10:52;;;;;;;10.50;6.35;;;;;;;10.00;68.06;100809.81;5085180;27;98932;-76
2023/12/14 07:13:18;;;;;;;11.98;7.05;;;;;;;9.93;68.02;100824.13;5084632;27;96799;-76
2023/12/14 07:15:48;;;;;;;10.93;6.90;;;;;;;9.93;68.24;100822.34;5082637;27;96738;-75
2023/12/14 07:18:15;;;;;;;12.63;6.90;;;;;;;9.92;68.76;100831.16;5080818;27;99057;-75
2023/12/14 07:20:41;;;;;;;12.85;7.20;;;;;;;9.94;68.37;100833.78;5081544;27;99080;-75
2023/12/14 07:23:08;;;;;;;11.15;8.23;;;;;;;10.05;67.75;100844.84;5081720;27;98568;-75
2023/12/14 07:25:34;;;;;;;12.60;7.70;;;;;;;9.99;67.59;100845.91;5079042;27;99431;-74
2023/12/14 07:28:00;;;;;;;14.60;7.68;;;;;;;9.83;68.12;100854.38;5079827;27;98286;-75
2023/12/14 07:30:27;;;;;;;13.38;8.20;;;;;;;9.88;68.48;100861.22;5082655;27;99804;-76
2023/12/14 07:32:55;;;;;;;12.13;7.93;;;;;;;9.69;68.22;100861.81;5074587;27;97092;-74
2023/12/14 07:35:21;;;;;;;16.05;9.02;;;;;;;9.68;69.00;100870.66;5079395;27;96855;-75
2023/12/14 07:37:47;;;;;;;13.93;9.13;;;;;;;9.85;69.16;100877.13;5084487;27;98844;-75
2023/12/14 07:40:14;;;;;;;15.65;8.27;;;;;;;9.96;67.93;100877.69;5082844;27;98953;-75
2023/12/14 07:42:41;;;;;;;13.75;7.90;;;;;;;9.84;68.64;100887.78;5080888;27;98455;-75
2023/12/14 07:45:09;;;;;;;13.68;8.70;;;;;;;9.84;68.20;100888.63;5081056;27;97106;-77
2023/12/14 07:47:36;;;;;;;16.45;9.68;;;;;;;9.87;68.62;100890.28;5075123;27;98900;-78
2023/12/14 07:50:05;;;;;;;14.60;9.57;;;;;;;9.77;68.51;100894.13;5081958;27;102863;-77
2023/12/14 07:52:31;;;;;;;18.75;10.00;;;;;;;9.87;68.61;100888.53;5076409;27;97695;-76
2023/12/14 07:54:58;;;;;;;15.75;9.68;;;;;;;9.81;68.20;100895.75;5082970;27;97891;-75
2023/12/14 07:57:24;;;;;;;13.75;9.10;;;;;;;10.05;68.34;100902.06;5085608;27;98784;-76
2023/12/14 07:59:51;;;;;;;13.70;9.30;;;;;;;9.94;67.37;100912.97;5084724;27;98733;-77
2023/12/14 08:02:18;;;;;;;15.48;9.63;;;;;;;10.06;67.86;100898.50;5084508;27;97848;-78
2023/12/14 08:04:44;;;;;;;16.20;11.18;;;;;;;9.96;67.46;100912.00;5085985;27;96761;-76
2023/12/14 08:07:12;;;;;;;14.77;10.13;;;;;;;10.17;66.83;100913.16;5082523;27;99084;-78
2023/12/14 08:09:38;;;;;;;16.67;10.88;;;;;;;10.09;66.39;100914.28;5080177;27;99058;-75
2023/12/14 08:12:05;;;;;;;18.90;10.55;;;;;;;10.16;66.72;100924.59;5074296;27;99470;-75
2023/12/14 08:14:33;;;;;;;17.08;11.13;;;;;;;10.19;66.98;100924.53;5080870;27;96884;-75
2023/12/14 08:17:00;;;;;;;16.88;10.50;;;;;;;10.28;66.21;100926.03;5082369;27;99016;-76
2023/12/14 08:19:27;;;;;;;16.33;10.85;;;;;;;10.20;66.00;100928.03;5078294;27;98796;-76
2023/12/14 08:21:53;;;;;;;17.27;10.30;;;;;;;10.22;66.02;100934.16;5083312;27;96878;-72
2023/12/14 08:24:21;;;;;;;18.38;10.88;;;;;;;10.27;66.38;100940.13;5082019;27;96853;-72
2023/12/14 08:26:47;;;;;;;19.30;10.85;;;;;;;10.15;65.89;100943.13;5080516;27;99297;-76
2023/12/14 08:29:14;;;;;;;17.15;9.90;;;;;;;10.17;65.76;100950.13;5079365;27;103090;-75
2023/12/14 08:31:40;;;;;;;16.33;10.52;;;;;;;10.22;65.50;100957.91;5069978;27;97590;-76
2023/12/14 08:34:07;;;;;;;17.30;9.73;;;;;;;10.19;65.42;100953.56;5078598;27;97208;-74
2023/12/14 08:36:33;;;;;;;15.45;9.88;;;;;;;10.16;66.32;100963.34;5077570;27;101482;-76
2023/12/14 08:39:00;;;;;;;18.83;11.25;;;;;;;9.95;66.17;100959.56;5073285;27;97789;-75
2023/12/14 08:41:27;;;;;;;15.43;10.18;;;;;;;9.97;66.18;100966.53;5079116;27;97663;-75
2023/12/14 08:43:55;;;;;;;16.73;10.73;;;;;;;10.07;65.97;100976.81;5076651;27;96982;-75
2023/12/14 08:46:22;;;;;;;17.13;10.77;;;;;;;9.93;66.81;100978.09;5068687;27;97642;-75
2023/12/14 08:48:49;;;;;;;15.90;10.18;;;;;;;10.07;66.07;100979.47;5070844;27;99700;-75
2023/12/14 08:51:15;;;;;;;18.55;10.93;;;;;;;9.85;66.53;100993.28;5081044;27;96767;-75
2023/12/14 08:53:43;;;;;;;17.60;10.75;;;;;;;9.96;67.15;100993.84;5073583;27;98188;-75
2023/12/14 08:56:10;;;;;;;18.20;11.77;;;;;;;10.00;66.27;100995.47;5077804;27;98872;-75
2023/12/14 08:58:38;;;;;;;18.45;11.25;;;;;;;9.88;66.74;100995.84;5080675;27;97541;-76
2023/12/14 09:01:04;;;;;;;16.20;10.70;;;;;;;10.19;66.40;100997.59;5073567;27;97477;-75
2023/12/14 09:03:31;;;;;;;18.98;11.98;;;;;;;10.16;66.32;101002.97;5068849;27;97312;-75
2023/12/14 09:05:58;;;;;;;20.83;11.32;;;;;;;10.22;66.15;101016.00;5080099;27;98975;-75
2023/12/14 09:08:24;;;;;;;16.95;11.25;;;;;;;10.15;66.33;101017.94;5077315;27;98593;-74
2023/12/14 09:10:51;;;;;;;20.30;11.30;;;;;;;10.33;66.35;101019.19;5076184;27;97880;-74
2023/12/14 09:13:17;;;;;;;22.17;12.55;;;;;;;10.28;66.62;101016.69;5079831;27;97693;-75
2023/12/14 09:15:45;;;;;;;18.63;10.50;;;;;;;10.33;65.50;101024.47;5080950;27;99043;-75
2023/12/14 09:18:12;;;;;;;20.63;13.05;;;;;;;10.20;66.19;101033.66;5073915;27;98749;-75
2023/12/14 09:20:40;;;;;;;16.83;11.38;;;;;;;10.27;65.93;101035.22;5077474;27;96791;-75
2023/12/14 09:23:06;;;;;;;19.55;11.45;;;;;;;10.34;66.07;101042.06;5077664;27;97800;-74
2023/12/14 09:25:33;;;;;;;20.15;12.77;;;;;;;10.31;66.24;101047.41;5079386;27;98161;-75
2023/12/14 09:27:59;;;;;;;20.48;12.23;;;;;;;10.53;65.93;101050.28;5076423;27;101366;-75
2023/12/14 09:30:25;;;;;;;22.00;11.73;;;;;;;10.18;66.00;101046.91;5081463;27;96790;-74
2023/12/14 09:32:53;;;;;;;19.17;11.88;;;;;;;10.15;66.19;101046.97;5078724;27;96982;-74
2023/12/14 09:35:20;;;;;;;20.30;12.30;;;;;;;10.21;66.55;101056.53;5078154;27;99577;-75
2023/12/14 09:37:46;;;;;;;21.75;12.70;;;;;;;10.29;66.40;101057.19;5081021;27;100452;-75
2023/12/14 09:40:13;;;;;;;21.48;13.05;;;;;;;10.46;66.13;101065.47;5078351;27;96878;-74
2023/12/14 09:42:40;;;;;;;21.08;12.68;;;;;;;10.43;65.64;101068.22;5081556;27;96883;-74
2023/12/14 09:45:09;;;;;;;20.88;13.50;;;;;;;10.27;66.08;101073.06;5074486;27;99324;-74
2023/12/14 09:47:35;;;;;;;20.35;12.32;;;;;;;10.26;66.07;101075.75;5075720;27;99239;-75
2023/12/14 09:50:04;;;;;;;17.25;11.68;;;;;;;10.20;66.37;101078.56;5077993;27;100870;-76
2023/12/14 09:52:29;;;;;;;22.40;11.70;;;;;;;10.13;66.66;101079.63;5073628;27;98014;-75
2023/12/14 09:54:55;;;;;;;;;;;;;;;10.30;66.21;101082.69;5075517;27;98818;-74
2023/12/14 09:57:22;;;;;;;19.65;10.75;;;;;;;10.35;65.59;101084.28;5086320;27;98795;-75
2023/12/14 09:59:52;;;;;;;18.92;11.25;;;;;;;10.26;65.54;101081.03;5085210;27;98023;-76
2023/12/14 10:02:18;;;;;;;18.25;10.85;;;;;;;10.27;65.59;101077.47;5080821;27;97862;-74
2023/12/14 10:04:45;;;;;;;21.75;11.60;;;;;;;10.34;66.13;101079.91;5079666;27;98307;-74
2023/12/14 10:07:13;;;;;;;17.88;11.15;;;;;;;10.20;65.52;101078.56;5078503;27;97687;-75
2023/12/14 10:09:39;;;;;;;22.25;12.02;;;;;;;10.22;66.09;101085.53;5075975;27;97048;-74
2023/12/14 10:12:08;;;;;;;17.67;11.85;;;;;;;10.19;65.75;101090.03;5078474;27;99080;-73
2023/12/14 10:14:35;;;;;;;19.75;12.55;;;;;;;10.17;65.61;101091.88;5083098;27;98391;-76
2023/12/14 10:17:16;;;;;;;21.08;11.90;;;;;;;10.01;66.45;101094.03;5082938;27;98901;-75
2023/12/14 10:19:43;;;;;;;20.08;12.15;;;;;;;9.82;67.12;101093.66;5074399;27;98519;-75
2023/12/14 10:22:10;;;;;;;18.75;11.57;;;;;;;10.15;66.57;101104.22;5077970;27;98677;-74
2023/12/14 10:24:37;;;;;;;20.08;11.15;;;;;;;10.08;65.39;101106.16;5084888;27;101825;-76
2023/12/14 10:27:07;;;;;;;18.58;10.48;;;;;;;10.33;64.88;101106.34;5076316;27;99125;-77
2023/12/14 10:29:34;;;;;;;17.00;10.45;;;;;;;10.32;64.78;101100.22;5083104;27;97234;-76
2023/12/14 10:32:00;;;;;;;19.25;11.73;;;;;;;10.39;64.82;101114.97;5083885;27;97526;-75
2023/12/14 10:34:26;;;;;;;19.88;11.63;;;;;;;10.20;64.77;101111.13;5080349;27;99133;-75
2023/12/14 10:36:53;;;;;;;17.08;11.07;;;;;;;10.43;64.76;101115.75;5079786;27;98125;-75
2023/12/14 10:39:21;;;;;;;17.85;11.57;;;;;;;10.35;64.03;101117.75;5074553;27;98448;-76
2023/12/14 10:41:49;;;;;;;18.83;11.77;;;;;;;10.56;63.62;101121.56;5083757;27;96975;-74
2023/12/14 10:44:16;;;;;;;17.83;11.65;;;;;;;10.38;63.79;101129.09;5078780;27;102690;-74
2023/12/14 10:46:43;;;;;;;20.42;11.95;;;;;;;10.50;63.90;101133.13;5080886;27;98914;-74
2023/12/14 10:49:11;;;;;;;18.67;11.90;;;;;;;10.44;63.62;101132.44;5080582;27;97417;-75
2023/12/14 10:51:42;;;;;;;19.58;12.20;;;;;;;10.46;63.53;101134.16;5082935;27;97113;-75
2023/12/14 10:54:09;;;;;;;19.83;11.63;;;;;;;10.41;64.25;101132.56;5079398;27;101185;-74
2023/12/14 10:56:35;;;;;;;18.95;11.38;;;;;;;10.56;63.52;101134.78;5080346;27;98857;-75
2023/12/14 10:59:04;;;;;;;17.42;11.00;;;;;;;10.41;63.79;101138.72;5078164;27;97480;-74
2023/12/14 11:01:34;;;;;;;19.38;12.10;;;;;;;10.33;63.78;101151.25;5080655;27;97988;-75
2023/12/14 11:04:01;;;;;;;22.70;12.75;;;;;;;10.07;64.33;101151.06;5070273;27;98907;-75
2023/12/14 11:06:30;;;;;;;20.75;11.77;;;;;;;10.09;65.25;101149.28;5075444;27;101565;-75
2023/12/14 11:08:58;;;;;;;18.63;12.05;;;;;;;10.27;64.90;101147.03;5067350;27;100542;-75
2023/12/14 11:11:29;;;;;;;22.05;12.05;;;;;;;10.31;64.32;101147.78;5079033;27;97372;-75
2023/12/14 11:13:56;;;;;;;19.38;11.48;;;;;;;10.45;64.20;101148.28;5075062;27;100567;-75